Lamoille, Nevada
Current Conditions -  °F | °C
As of 11:56 PM on Wednesday 26 Nov 2014 (Local Time) from KEKO Reporting Station
Clear Clear  
Wind Chill: 35°   Ceiling: Unl
Heat Index: 35°   Visibility: 10mi
Dew Point: 29°   Wind: 0mph
Humidity: 78%   Direction: NA
Pressure: 30.33"   Gusts: NA
Location:  40.73°N, 115.48°W
Report Text: KEKO 270756Z AUTO 00000KT 10SM CLR 02/M02 A3033 RMK AO2 SLP264 T00171017 401561050
Loading
Personal Weather Stations






























Interactive Weather Map New forecast layout! Learn more

10-Day Weather Forecast

Advertisements
Track Severe Weather on mobile